createdAt,value
2017-07-11T00:00:46.038Z,0
2017-07-11T00:01:54.691Z,0
2017-07-11T00:03:03.654Z,0
2017-07-11T00:04:12.315Z,0
2017-07-11T00:05:21.906Z,0
2017-07-11T00:06:30.705Z,0
2017-07-11T00:07:39.712Z,0
2017-07-11T00:08:49.007Z,0
2017-07-11T00:09:57.975Z,0
2017-07-11T00:11:07.246Z,0
2017-07-11T00:12:16.246Z,0
2017-07-11T00:13:25.511Z,0
2017-07-11T00:14:34.477Z,0
2017-07-11T00:15:43.438Z,0
2017-07-11T00:16:52.409Z,0
2017-07-11T00:18:02.050Z,0
2017-07-11T00:19:11.001Z,0
2017-07-11T00:20:19.960Z,0
2017-07-11T00:21:28.917Z,0
2017-07-11T00:22:37.872Z,0
2017-07-11T00:23:46.536Z,0
2017-07-11T00:24:55.499Z,0
2017-07-11T00:26:05.404Z,0
2017-07-11T00:27:14.678Z,0
2017-07-11T00:28:23.640Z,0
2017-07-11T00:29:32.907Z,0
2017-07-11T00:30:42.186Z,0
2017-07-11T00:31:51.149Z,0
2017-07-11T00:33:00.115Z,0
2017-07-11T00:34:08.748Z,0
2017-07-11T00:35:17.555Z,0
2017-07-11T00:36:26.514Z,0
2017-07-11T00:37:35.790Z,0
2017-07-11T00:38:45.381Z,0
2017-07-11T00:39:54.971Z,0
2017-07-11T00:41:04.086Z,0
2017-07-11T00:42:13.357Z,0
2017-07-11T00:43:22.944Z,0
2017-07-11T00:44:31.587Z,0
2017-07-11T00:45:40.890Z,0
2017-07-11T00:46:50.785Z,0
2017-07-11T00:47:59.742Z,0
2017-07-11T00:49:09.010Z,0
2017-07-11T00:50:17.977Z,0
2017-07-11T00:51:26.620Z,0
2017-07-11T00:52:36.354Z,0
2017-07-11T00:53:45.636Z,0
2017-07-11T00:54:54.922Z,0
2017-07-11T00:56:04.512Z,0
2017-07-11T00:57:13.473Z,0
2017-07-11T00:58:22.796Z,0
2017-07-11T00:59:32.078Z,0
2017-07-11T01:00:41.970Z,0
2017-07-11T01:01:51.570Z,0
2017-07-11T01:03:00.534Z,0
2017-07-11T01:04:09.186Z,0
2017-07-11T01:05:18.459Z,0
2017-07-11T01:06:27.415Z,0
2017-07-11T01:07:36.066Z,0
2017-07-11T01:08:45.655Z,0
2017-07-11T01:09:55.568Z,0
2017-07-11T01:11:04.526Z,0
2017-07-11T01:12:13.800Z,0
2017-07-11T01:13:23.395Z,0
2017-07-11T01:14:32.378Z,0
2017-07-11T01:15:41.340Z,0
2017-07-11T01:16:50.629Z,0
2017-07-11T01:17:59.896Z,0
2017-07-11T01:19:08.539Z,0
2017-07-11T01:20:17.499Z,0
2017-07-11T01:21:27.188Z,0
2017-07-11T01:22:36.771Z,0
2017-07-11T01:23:46.675Z,0
2017-07-11T01:24:55.634Z,0
2017-07-11T01:26:05.224Z,0
2017-07-11T01:27:14.337Z,0
2017-07-11T01:28:23.302Z,0
2017-07-11T01:29:32.570Z,0
2017-07-11T01:30:41.529Z,0
2017-07-11T01:31:51.108Z,0
2017-07-11T01:33:00.222Z,0
2017-07-11T01:34:08.862Z,0
2017-07-11T01:35:17.824Z,0
2017-07-11T01:36:26.473Z,0
2017-07-11T01:37:35.430Z,0
2017-07-11T01:38:44.486Z,0
2017-07-11T01:39:53.444Z,0
2017-07-11T01:41:03.028Z,0
2017-07-11T01:42:11.994Z,0
2017-07-11T01:43:21.262Z,0
2017-07-11T01:44:30.374Z,0
2017-07-11T01:45:39.010Z,0
2017-07-11T01:46:47.966Z,0
2017-07-11T01:47:56.974Z,0
2017-07-11T01:49:06.566Z,0
2017-07-11T01:50:15.891Z,0
2017-07-11T01:51:24.870Z,0
2017-07-11T01:52:34.152Z,0
2017-07-11T01:53:43.747Z,0
2017-07-11T01:54:52.695Z,0
2017-07-11T01:56:02.013Z,0
2017-07-11T01:57:10.970Z,0
2017-07-11T01:58:19.618Z,0
2017-07-11T01:59:28.897Z,0
2017-07-11T02:00:37.856Z,0
2017-07-11T02:01:47.162Z,0
2017-07-11T02:02:55.814Z,0
2017-07-11T02:04:05.391Z,0
2017-07-11T02:05:14.347Z,0
2017-07-11T02:06:22.993Z,0
2017-07-11T02:07:32.356Z,0
2017-07-11T02:08:41.003Z,0
2017-07-11T02:09:49.960Z,0
2017-07-11T02:10:59.552Z,0
2017-07-11T02:12:08.504Z,0
2017-07-11T02:13:17.610Z,0
2017-07-11T02:14:26.887Z,0
2017-07-11T02:15:36.180Z,0
2017-07-11T02:16:45.134Z,0
2017-07-11T02:17:54.097Z,0
2017-07-11T02:19:03.837Z,0
2017-07-11T02:20:13.425Z,0
2017-07-11T02:21:22.391Z,0
2017-07-11T02:22:31.345Z,0
2017-07-11T02:23:40.308Z,0
2017-07-11T02:24:49.419Z,0
2017-07-11T02:25:58.693Z,0
2017-07-11T02:27:07.956Z,0
2017-07-11T02:28:16.910Z,0
2017-07-11T02:29:25.554Z,0
2017-07-11T02:30:35.441Z,0
2017-07-11T02:31:44.418Z,0
2017-07-11T02:32:53.679Z,0
2017-07-11T02:34:02.641Z,0
2017-07-11T02:35:11.602Z,0
2017-07-11T02:36:21.021Z,0
2017-07-11T02:37:30.300Z,0
2017-07-11T02:38:39.262Z,0
2017-07-11T02:39:48.849Z,0
2017-07-11T02:40:58.114Z,0
2017-07-11T02:42:07.859Z,0
2017-07-11T02:43:17.141Z,0
2017-07-11T02:44:26.093Z,0
2017-07-11T02:45:35.047Z,0
2017-07-11T02:46:44.005Z,0
2017-07-11T02:47:52.706Z,0
2017-07-11T02:49:01.350Z,0
2017-07-11T02:50:10.648Z,0
2017-07-11T02:51:19.925Z,0
2017-07-11T02:52:29.518Z,0
2017-07-11T02:53:38.467Z,0
2017-07-11T02:54:47.118Z,0
2017-07-11T02:55:55.757Z,0
2017-07-11T02:57:04.711Z,0
2017-07-11T06:23:04.410Z,5756
2017-07-11T06:26:45.775Z,4248
2017-07-11T06:27:54.459Z,4192
2017-07-11T06:29:03.752Z,5756
2017-07-11T06:30:12.744Z,2832
2017-07-11T06:31:22.019Z,2756
2017-07-11T06:32:31.297Z,2632
2017-07-11T06:33:40.273Z,3364
2017-07-11T06:34:49.571Z,4300
2017-07-11T06:35:58.233Z,5792
2017-07-11T06:37:07.508Z,3788
2017-07-11T06:38:16.781Z,4628
2017-07-11T06:39:25.429Z,4260
2017-07-11T06:40:34.392Z,5248
2017-07-11T06:41:44.287Z,12640
2017-07-11T06:42:52.948Z,11944
2017-07-11T06:44:02.236Z,26432
2017-07-11T06:45:11.347Z,16212
2017-07-11T06:46:20.063Z,16232
2017-07-11T06:47:29.024Z,35712
2017-07-11T06:48:38.025Z,17224
2017-07-11T06:49:47.305Z,14040
2017-07-11T06:50:56.584Z,10276
2017-07-11T06:52:05.589Z,10316
2017-07-11T06:53:15.550Z,11908
2017-07-11T06:54:24.195Z,11336
2017-07-11T06:55:33.472Z,11984
2017-07-11T06:56:42.443Z,5764
2017-07-11T06:57:51.106Z,4400
2017-07-11T06:59:00.073Z,13364
2017-07-11T07:00:09.347Z,13568
2017-07-11T07:01:18.328Z,8060
2017-07-11T07:02:26.980Z,9640
2017-07-11T07:03:35.622Z,7724
2017-07-11T07:04:44.640Z,39392
2017-07-11T07:05:53.308Z,8992
2017-07-11T07:07:02.279Z,14812
2017-07-11T07:08:11.253Z,11608
2017-07-11T07:09:20.853Z,8616
2017-07-11T07:10:30.133Z,4180
2017-07-11T07:11:39.465Z,3652
2017-07-11T07:12:48.443Z,4296
2017-07-11T07:13:57.094Z,4000
2017-07-11T07:15:06.066Z,3784
2017-07-11T07:16:14.714Z,3764
2017-07-11T07:17:23.362Z,4152
2017-07-11T07:18:32.327Z,6588
2017-07-11T07:19:40.982Z,6320
2017-07-11T07:20:50.585Z,6940
2017-07-11T07:21:59.545Z,6612
2017-07-11T07:23:08.508Z,4632
2017-07-11T07:24:17.205Z,3480
2017-07-11T07:25:26.204Z,4788
2017-07-11T07:26:35.164Z,3920
2017-07-11T07:27:44.125Z,5696
2017-07-11T07:28:53.096Z,4796
2017-07-11T07:30:02.060Z,5012
2017-07-11T07:31:11.033Z,4964
2017-07-11T07:32:20.333Z,4680
2017-07-11T07:33:29.613Z,3620
2017-07-11T07:34:38.572Z,4512
2017-07-11T07:35:47.549Z,4428
2017-07-11T07:36:56.836Z,4308
2017-07-11T07:38:06.117Z,5308
2017-07-11T07:39:16.044Z,7064
2017-07-11T07:40:25.017Z,6604
2017-07-11T07:41:34.623Z,4256
2017-07-11T07:42:43.586Z,3640
2017-07-11T07:43:52.579Z,3232
2017-07-11T07:45:01.864Z,2272
2017-07-11T07:46:11.469Z,2212
2017-07-11T07:47:21.087Z,2628
2017-07-11T07:48:30.422Z,3216
2017-07-11T07:49:39.702Z,2828
2017-07-11T07:50:49.001Z,2884
2017-07-11T07:51:57.658Z,3112
2017-07-11T07:53:39.042Z,5652
2017-07-11T07:54:48.323Z,4844
2017-07-11T07:55:57.601Z,5584
2017-07-11T07:57:06.558Z,17116
2017-07-11T07:58:15.920Z,7684
2017-07-11T07:59:24.896Z,6484
2017-07-11T08:00:34.511Z,10816
2017-07-11T08:01:43.554Z,11032
2017-07-11T08:02:52.545Z,12436
2017-07-11T08:04:01.540Z,15672
2017-07-11T08:05:11.150Z,15920
2017-07-11T08:06:20.104Z,21760
2017-07-11T08:07:29.087Z,46368
2017-07-11T08:08:38.059Z,37312
2017-07-11T08:09:46.723Z,34816
2017-07-11T08:10:56.068Z,33536
2017-07-11T08:12:05.383Z,35456
2017-07-11T08:13:14.354Z,29344
2017-07-11T08:14:23.647Z,36704
2017-07-11T08:15:32.931Z,56640
2017-07-11T08:16:42.314Z,61696
2017-07-11T08:17:51.594Z,61056
2017-07-11T08:19:00.899Z,63360
2017-07-11T08:20:10.192Z,55968
2017-07-11T08:21:19.477Z,56384
2017-07-11T08:22:28.794Z,50944
2017-07-11T08:23:37.458Z,51840
2017-07-11T08:24:47.047Z,49504
2017-07-11T08:25:57.278Z,49536
2017-07-11T08:27:06.867Z,54688
2017-07-11T08:28:16.153Z,53920
2017-07-11T08:29:25.128Z,57952
2017-07-11T08:30:33.783Z,59584
2017-07-11T08:31:43.390Z,55840
2017-07-11T08:32:52.669Z,46592
2017-07-11T08:34:01.640Z,45568
2017-07-11T08:35:10.604Z,53472
2017-07-11T08:36:19.254Z,54816
2017-07-11T08:37:28.536Z,50880
2017-07-11T08:38:37.206Z,45632
2017-07-11T08:39:46.489Z,42816
2017-07-11T08:40:55.461Z,40288
2017-07-11T08:42:05.421Z,40352
2017-07-11T08:43:14.395Z,47648
2017-07-11T08:44:23.086Z,46144
2017-07-11T08:45:32.375Z,47840
2017-07-11T08:46:41.975Z,42848
2017-07-11T08:47:50.635Z,35456
2017-07-11T08:48:59.913Z,39136
2017-07-11T08:50:08.565Z,36224
2017-07-11T08:51:17.871Z,36256
2017-07-11T08:52:26.851Z,24896
2017-07-11T08:53:35.497Z,13304
2017-07-11T08:54:44.477Z,9600
2017-07-11T08:55:53.147Z,8016
2017-07-11T08:57:01.813Z,6604
2017-07-11T08:58:11.106Z,7104
2017-07-11T08:59:20.098Z,7168
2017-07-11T09:00:29.388Z,7352
2017-07-11T09:01:38.680Z,7108
2017-07-11T09:02:47.979Z,6544
2017-07-11T09:03:56.639Z,6228
2017-07-11T09:05:05.913Z,5864
2017-07-11T09:06:15.198Z,5680
2017-07-11T09:07:24.176Z,5680
2017-07-11T09:08:33.460Z,5584
2017-07-11T09:09:43.062Z,5456
2017-07-11T09:10:52.356Z,5492
2017-07-11T09:12:01.046Z,5432
2017-07-11T09:13:10.024Z,5272
2017-07-11T09:14:19.618Z,5224
2017-07-11T09:15:28.590Z,5260
2017-07-11T09:16:38.184Z,5364
2017-07-11T09:17:46.839Z,5352
2017-07-11T09:18:56.136Z,5372
2017-07-11T09:20:05.099Z,5304
2017-07-11T09:21:14.390Z,5220
2017-07-11T09:22:23.683Z,4892
2017-07-11T09:23:32.956Z,5344
2017-07-11T09:24:42.242Z,5116
2017-07-11T09:25:52.150Z,5012
2017-07-11T09:27:00.808Z,5032
2017-07-11T09:28:09.773Z,5200
2017-07-11T09:29:19.052Z,5032
2017-07-11T09:30:28.026Z,4760
2017-07-11T09:31:36.682Z,4652
2017-07-11T09:32:45.348Z,4564
2017-07-11T09:33:54.341Z,4560
2017-07-11T09:35:03.637Z,4568
2017-07-11T09:36:12.612Z,4448
2017-07-11T09:37:21.893Z,4280
2017-07-11T09:38:30.863Z,4208
2017-07-11T09:39:39.825Z,4112
2017-07-11T09:40:48.489Z,4044
2017-07-11T09:41:57.760Z,4024
2017-07-11T09:43:06.717Z,4004
2017-07-11T09:44:16.004Z,4004
2017-07-11T09:45:25.294Z,4004
2017-07-11T09:46:33.948Z,3964
2017-07-11T09:47:42.929Z,4000
2017-07-11T09:48:52.213Z,4076
2017-07-11T09:50:02.187Z,4148
2017-07-11T09:51:11.498Z,4196
2017-07-11T09:52:20.473Z,4344
2017-07-11T09:53:30.056Z,4152
2017-07-11T09:54:39.647Z,4016
2017-07-11T09:55:49.248Z,3980
2017-07-11T09:56:58.844Z,3964
2017-07-11T09:58:07.514Z,3828
2017-07-11T09:59:16.167Z,3844
2017-07-11T10:00:25.232Z,3944
2017-07-11T10:01:34.571Z,3892
2017-07-11T10:02:44.825Z,3940
2017-07-11T10:03:54.736Z,3932
2017-07-11T10:05:03.707Z,3948
2017-07-11T10:06:12.992Z,3972
2017-07-11T10:07:21.967Z,4044
2017-07-11T10:08:30.940Z,4052
2017-07-11T10:09:39.913Z,4152
2017-07-11T10:10:48.885Z,4208
2017-07-11T10:11:58.185Z,4192
2017-07-11T10:13:07.470Z,4108
2017-07-11T10:14:16.111Z,4068
2017-07-11T10:15:25.072Z,4092
2017-07-11T10:16:34.033Z,4052
2017-07-11T10:17:43.008Z,4032
2017-07-11T10:18:51.659Z,4008
2017-07-11T10:20:00.630Z,3964
2017-07-11T10:21:09.280Z,3976
2017-07-11T10:22:18.564Z,3984
2017-07-11T10:23:27.214Z,3936
2017-07-11T10:24:36.483Z,3812
2017-07-11T10:25:45.128Z,3764
2017-07-11T10:26:54.123Z,3712
2017-07-11T10:28:03.390Z,3644
2017-07-11T10:29:12.973Z,3528
2017-07-11T10:30:21.636Z,3372
2017-07-11T10:31:30.590Z,3276
2017-07-11T10:32:39.548Z,3228
2017-07-11T10:33:49.140Z,3216
2017-07-11T10:34:58.422Z,3352
2017-07-11T10:36:07.703Z,3420
2017-07-11T10:37:16.977Z,3392
2017-07-11T10:38:25.993Z,3344
2017-07-11T10:39:34.960Z,3284
2017-07-11T10:40:43.944Z,3184
2017-07-11T10:41:53.247Z,3164
2017-07-11T10:43:01.898Z,3216
2017-07-11T10:44:10.860Z,3272
2017-07-11T10:45:19.503Z,3276
2017-07-11T10:46:28.155Z,3536
2017-07-11T10:47:37.132Z,3772
2017-07-11T10:48:46.097Z,3476
2017-07-11T10:49:56.014Z,3036
2017-07-11T10:51:05.929Z,3460
2017-07-11T10:52:15.209Z,3700
2017-07-11T10:53:24.497Z,3740
2017-07-11T10:54:33.163Z,3492
2017-07-11T10:55:42.124Z,3320
2017-07-11T10:56:51.091Z,3376
2017-07-11T10:58:00.070Z,3796
2017-07-11T10:59:09.031Z,3804
2017-07-11T11:00:18.642Z,3556
2017-07-11T11:01:27.919Z,3360
2017-07-11T11:02:36.560Z,3164
2017-07-11T11:03:45.528Z,2840
2017-07-11T11:04:55.122Z,3028
2017-07-11T11:06:04.081Z,2576
2017-07-11T11:07:13.045Z,2296
2017-07-11T11:08:22.014Z,2524
2017-07-11T11:09:30.661Z,2552
2017-07-11T11:10:39.632Z,2496
2017-07-11T11:11:48.935Z,2880
2017-07-11T11:12:57.576Z,2964
2017-07-11T11:14:06.230Z,2640
2017-07-11T11:15:14.896Z,2432
2017-07-11T11:16:24.810Z,2104
2017-07-11T11:17:34.092Z,2172
2017-07-11T11:18:43.057Z,2068
2017-07-11T11:19:51.719Z,2012
2017-07-11T11:21:00.706Z,2160
2017-07-11T11:22:09.659Z,2360
2017-07-11T11:23:18.611Z,2144
2017-07-11T11:24:27.572Z,2172
2017-07-11T11:25:36.842Z,2360
2017-07-11T11:26:46.112Z,2292
2017-07-11T11:27:55.075Z,2420
2017-07-11T11:29:04.354Z,2900
2017-07-11T11:30:13.320Z,3168
2017-07-11T11:31:22.285Z,3292
2017-07-11T11:32:31.248Z,3036
2017-07-11T11:33:40.212Z,2824
2017-07-11T11:34:48.862Z,2576
2017-07-11T11:35:58.159Z,2368
2017-07-11T11:37:07.426Z,2280
2017-07-11T11:38:16.699Z,2184
2017-07-11T11:39:25.981Z,1948
2017-07-11T11:40:35.263Z,1856
2017-07-11T11:41:43.921Z,2088
2017-07-11T11:42:52.879Z,2200
2017-07-11T11:44:01.857Z,2504
2017-07-11T11:45:10.514Z,2664
2017-07-11T11:46:20.115Z,2428
2017-07-11T11:47:29.390Z,2324
2017-07-11T11:48:38.361Z,2432
2017-07-11T11:49:47.084Z,2460
2017-07-11T11:50:56.048Z,2496
2017-07-11T11:52:05.018Z,2796
2017-07-11T11:53:14.293Z,3204
2017-07-11T11:54:23.568Z,3120
2017-07-11T11:55:32.273Z,2728
2017-07-11T11:56:41.242Z,2444
2017-07-11T11:57:50.214Z,2336
2017-07-11T11:58:58.863Z,2684
2017-07-11T12:00:07.821Z,2736
2017-07-11T12:01:16.473Z,2708
2017-07-11T12:02:25.764Z,2512
2017-07-11T12:03:34.734Z,2540
2017-07-11T12:04:44.014Z,2828
2017-07-11T12:05:52.658Z,2928
2017-07-11T12:07:01.955Z,3004
2017-07-11T12:08:10.598Z,3076
2017-07-11T12:09:19.883Z,3012
2017-07-11T12:10:29.166Z,2792
2017-07-11T12:11:38.430Z,2680
2017-07-11T12:12:47.380Z,2872
2017-07-11T12:13:56.340Z,2992
2017-07-11T12:15:05.616Z,3244
2017-07-11T12:16:14.583Z,3544
2017-07-11T12:17:23.929Z,3732
2017-07-11T12:18:33.526Z,3756
2017-07-11T12:19:42.180Z,3648
2017-07-11T12:20:51.791Z,3664
2017-07-11T12:22:01.089Z,3688
2017-07-11T12:23:10.051Z,3892
2017-07-11T12:24:19.320Z,3888
2017-07-11T12:25:27.968Z,3900
2017-07-11T12:26:37.243Z,3896
2017-07-11T12:27:46.235Z,3828
2017-07-11T12:28:55.505Z,3612
2017-07-11T12:30:04.464Z,3436
2017-07-11T12:31:14.371Z,3156
2017-07-11T12:32:23.399Z,3116
2017-07-11T12:33:32.997Z,3356
2017-07-11T12:34:41.963Z,3676
2017-07-11T12:35:50.609Z,3424
2017-07-11T12:37:00.851Z,2948
2017-07-11T12:38:09.820Z,2684
2017-07-11T12:39:19.102Z,2572
2017-07-11T12:40:28.058Z,2556
2017-07-11T12:41:37.332Z,2484
2017-07-11T12:42:47.240Z,2568
2017-07-11T12:43:55.891Z,2624
2017-07-11T12:45:05.472Z,2672
2017-07-11T12:46:14.450Z,2960
2017-07-11T12:47:23.406Z,2932
2017-07-11T12:48:32.426Z,2640
2017-07-11T12:49:41.697Z,2536
2017-07-11T12:50:50.346Z,2496
2017-07-11T12:51:59.631Z,2432
2017-07-11T12:53:09.232Z,2364
2017-07-11T12:54:18.509Z,2448
2017-07-11T12:55:28.116Z,2740
2017-07-11T12:56:37.391Z,3128
2017-07-11T12:57:47.065Z,3484
2017-07-11T12:58:56.011Z,3928
2017-07-11T13:00:04.973Z,4272
2017-07-11T13:01:14.561Z,4408
2017-07-11T13:02:24.480Z,4504
2017-07-11T13:03:33.441Z,4524
2017-07-11T13:04:42.719Z,4280
2017-07-11T13:05:51.994Z,3712
2017-07-11T13:07:00.684Z,3092
2017-07-11T13:08:09.946Z,2652
2017-07-11T13:09:19.223Z,2396
2017-07-11T13:10:27.877Z,2272
2017-07-11T13:11:36.841Z,2264
2017-07-11T13:12:46.429Z,2316
2017-07-11T13:13:55.091Z,2468
2017-07-11T13:15:04.681Z,2468
2017-07-11T13:16:13.951Z,2476
2017-07-11T13:17:23.237Z,2400
2017-07-11T13:18:31.871Z,2356
2017-07-11T13:19:40.835Z,2316
2017-07-11T13:20:50.430Z,2224
2017-07-11T13:21:59.398Z,2244
2017-07-11T13:23:08.670Z,2384
2017-07-11T13:24:17.626Z,2620
2017-07-11T13:25:26.914Z,2716
2017-07-11T13:26:36.188Z,2780
2017-07-11T13:27:44.903Z,2900
2017-07-11T13:28:53.550Z,3028
2017-07-11T13:30:02.515Z,3120
2017-07-11T13:31:11.795Z,3088
2017-07-11T13:32:21.063Z,2968
2017-07-11T13:33:29.707Z,2972
2017-07-11T13:34:38.667Z,3084
2017-07-11T13:35:47.637Z,3264
2017-07-11T13:36:56.591Z,3468
2017-07-11T13:38:05.853Z,3376
2017-07-11T13:39:14.822Z,3256
2017-07-11T13:40:23.805Z,3272
2017-07-11T13:41:33.072Z,3128
2017-07-11T13:42:42.398Z,2928
2017-07-11T13:43:51.366Z,2828
2017-07-11T13:45:00.949Z,2640
2017-07-11T13:46:09.584Z,2500
2017-07-11T13:47:18.231Z,2464
2017-07-11T13:48:27.186Z,2404
2017-07-11T13:49:36.151Z,2308
2017-07-11T13:50:45.421Z,2268
2017-07-11T13:51:54.382Z,2336
2017-07-11T13:53:03.332Z,2340
2017-07-11T13:54:12.298Z,2272
2017-07-11T13:55:21.890Z,2168
2017-07-11T13:56:30.848Z,2164
2017-07-11T13:57:39.809Z,2260
2017-07-11T13:58:48.463Z,2328
2017-07-11T13:59:57.101Z,2436
2017-07-11T14:01:06.056Z,2628
2017-07-11T14:02:15.031Z,2584
2017-07-11T14:03:24.310Z,2300
2017-07-11T14:04:33.273Z,2120
2017-07-11T14:05:42.565Z,1868
2017-07-11T14:06:51.529Z,1664
2017-07-11T14:08:00.538Z,1816
2017-07-11T14:09:09.506Z,2296
2017-07-11T14:10:18.797Z,3080
2017-07-11T14:11:28.393Z,3368
2017-07-11T14:12:37.365Z,3308
2017-07-11T14:13:46.663Z,2932
2017-07-11T14:14:55.313Z,2592
2017-07-11T14:16:04.606Z,2844
2017-07-11T14:17:13.255Z,3216
2017-07-11T14:18:22.529Z,3392
2017-07-11T14:19:31.500Z,3352
2017-07-11T14:20:40.458Z,3144
2017-07-11T14:21:49.420Z,3016
2017-07-11T14:22:58.382Z,3036
2017-07-11T14:24:07.357Z,3072
2017-07-11T14:25:16.325Z,3096
2017-07-11T14:26:25.606Z,3092
2017-07-11T14:27:34.572Z,3020
2017-07-11T14:28:43.530Z,2992
2017-07-11T14:29:53.125Z,2968
2017-07-11T14:31:02.399Z,2984
2017-07-11T14:32:11.363Z,3036
2017-07-11T14:33:20.330Z,3004
2017-07-11T14:34:28.989Z,2944
2017-07-11T14:35:38.280Z,2920
2017-07-11T14:36:47.247Z,2920
2017-07-11T14:37:55.898Z,3040
2017-07-11T14:39:05.169Z,3176
2017-07-11T14:40:14.453Z,3292
2017-07-11T14:41:23.740Z,3248
2017-07-11T14:42:32.695Z,3244
2017-07-11T14:43:41.335Z,3208
2017-07-11T14:44:50.611Z,3088
2017-07-11T14:45:59.265Z,3136
2017-07-11T14:47:08.231Z,3008
2017-07-11T14:48:18.127Z,2952
2017-07-11T14:49:26.765Z,3024
2017-07-11T14:50:35.722Z,3080
2017-07-11T14:51:45.001Z,2876
2017-07-11T14:52:54.583Z,2684
2017-07-11T14:54:04.500Z,2512
2017-07-11T14:55:13.489Z,2352
2017-07-11T14:56:22.136Z,2124
2017-07-11T14:57:31.735Z,1984
2017-07-11T14:58:41.016Z,1948
2017-07-11T14:59:50.343Z,1924
2017-07-11T15:00:59.931Z,1892
2017-07-11T15:02:09.223Z,1828
2017-07-11T15:03:18.179Z,1800
2017-07-11T15:04:27.135Z,1892
2017-07-11T15:05:36.734Z,1944
2017-07-11T15:06:45.373Z,1952
2017-07-11T15:07:54.328Z,1876
2017-07-11T15:09:02.976Z,1744
2017-07-11T15:10:12.569Z,1556
2017-07-11T15:11:21.558Z,1408
2017-07-11T15:12:30.834Z,1364
2017-07-11T15:13:39.809Z,1376
2017-07-11T15:14:48.761Z,1456
2017-07-11T15:15:57.719Z,1548
2017-07-11T15:17:06.669Z,1672
2017-07-11T15:18:15.999Z,1800
2017-07-11T15:19:24.969Z,2104
2017-07-11T15:20:34.563Z,2540
2017-07-11T15:21:44.152Z,2856
2017-07-11T15:22:53.446Z,3012
2017-07-11T15:24:02.405Z,3012
2017-07-11T15:25:11.045Z,2912
2017-07-11T15:26:20.634Z,2688
2017-07-11T15:27:30.236Z,2468
2017-07-11T15:28:39.520Z,2340
2017-07-11T15:29:48.164Z,2228
2017-07-11T15:30:57.118Z,2212
2017-07-11T15:32:06.393Z,2308
2017-07-11T15:33:15.668Z,2416
2017-07-11T15:34:24.619Z,2528
2017-07-11T15:35:33.290Z,2588
2017-07-11T15:36:42.267Z,2604
2017-07-11T15:37:51.551Z,2584
2017-07-11T15:39:00.834Z,2576
2017-07-11T15:40:09.801Z,2600
2017-07-11T15:41:18.772Z,2640
2017-07-11T15:42:27.727Z,2692
2017-07-11T15:43:36.679Z,2720
2017-07-11T15:44:45.335Z,2712
2017-07-11T15:45:54.307Z,2676
2017-07-11T15:47:03.272Z,2572
2017-07-11T15:48:12.235Z,2416
2017-07-11T15:49:21.507Z,2460
2017-07-11T15:50:30.460Z,2540
2017-07-11T15:51:39.096Z,2596
2017-07-11T15:52:48.375Z,2636
2017-07-11T15:53:57.655Z,2672
2017-07-11T15:55:06.301Z,2672
2017-07-11T15:56:15.268Z,2688
2017-07-11T15:57:24.549Z,2764
2017-07-11T15:58:34.131Z,2668
2017-07-11T15:59:43.408Z,2664
2017-07-11T16:00:52.056Z,2604
2017-07-11T16:02:01.337Z,2516
2017-07-11T16:03:10.291Z,2472
2017-07-11T16:04:18.948Z,2468
2017-07-11T16:05:27.909Z,2336
2017-07-11T16:06:36.879Z,2220
2017-07-11T16:07:46.158Z,2144
2017-07-11T16:08:55.753Z,2136
2017-07-11T16:10:04.709Z,2160
2017-07-11T16:11:13.353Z,2080
2017-07-11T16:12:22.321Z,2020
2017-07-11T16:13:30.977Z,1896
2017-07-11T16:14:39.930Z,1792
2017-07-11T16:15:48.886Z,1768
2017-07-11T16:16:57.859Z,1700
2017-07-11T16:18:06.844Z,1624
2017-07-11T16:19:15.813Z,1564
2017-07-11T16:20:24.468Z,1544
2017-07-11T16:21:33.439Z,1500
2017-07-11T16:22:42.092Z,1472
2017-07-11T16:23:51.051Z,1536
2017-07-11T16:25:00.001Z,1564
2017-07-11T16:26:09.001Z,1632
2017-07-11T16:27:18.608Z,1676
2017-07-11T16:28:27.889Z,1540
2017-07-11T16:29:37.157Z,1428
2017-07-11T16:30:46.432Z,1392
2017-07-11T16:31:55.405Z,1344
2017-07-11T16:33:04.051Z,1268
2017-07-11T16:34:13.003Z,1128
2017-07-11T16:35:22.278Z,1052
2017-07-11T16:36:31.566Z,996
2017-07-11T16:37:41.152Z,968
2017-07-11T16:38:50.109Z,948
2017-07-11T16:39:59.074Z,1040
2017-07-11T16:41:08.358Z,952
2017-07-11T16:42:17.313Z,1024
2017-07-11T16:43:26.273Z,852
2017-07-11T16:44:35.862Z,816
2017-07-11T16:45:45.158Z,788
2017-07-11T16:46:55.052Z,792
2017-07-11T16:48:04.313Z,824
2017-07-11T16:49:13.267Z,788
2017-07-11T16:50:22.861Z,824
2017-07-11T16:51:31.832Z,832
2017-07-11T16:52:40.467Z,872
2017-07-11T16:53:50.054Z,992
2017-07-11T16:54:59.025Z,1064
2017-07-11T16:56:08.317Z,1084
2017-07-11T16:57:17.591Z,1100
2017-07-11T16:58:26.549Z,1172
2017-07-11T16:59:36.147Z,1240
2017-07-11T17:00:44.790Z,1280
2017-07-11T17:01:54.087Z,1260
2017-07-11T17:03:02.730Z,1240
2017-07-11T17:04:11.998Z,1236
2017-07-11T17:05:20.970Z,1264
2017-07-11T17:06:29.927Z,1240
2017-07-11T17:07:39.212Z,1260
2017-07-11T17:08:48.800Z,1332
2017-07-11T17:09:58.383Z,1296
2017-07-11T17:11:07.977Z,1228
2017-07-11T17:12:16.932Z,1232
2017-07-11T17:13:25.884Z,1216
2017-07-11T17:14:35.149Z,1192
2017-07-11T17:15:43.794Z,1212
2017-07-11T17:16:52.779Z,1188
2017-07-11T17:18:01.813Z,1116
2017-07-11T17:19:10.773Z,1108
2017-07-11T17:20:20.055Z,1092
2017-07-11T17:21:28.701Z,1068
2017-07-11T17:22:37.344Z,972
2017-07-11T17:23:45.989Z,908
2017-07-11T17:24:55.262Z,904
2017-07-11T17:26:04.600Z,868
2017-07-11T17:27:13.890Z,808
2017-07-11T17:28:23.791Z,696
2017-07-11T17:29:33.383Z,572
2017-07-11T17:30:42.659Z,448
2017-07-11T17:31:52.247Z,324
2017-07-11T17:33:01.839Z,232
2017-07-11T17:34:10.795Z,168
2017-07-11T17:35:20.069Z,132
2017-07-11T17:36:29.032Z,108
2017-07-11T17:37:38.301Z,88
2017-07-11T17:38:47.267Z,72
2017-07-11T17:39:56.563Z,60
2017-07-11T17:41:05.205Z,52
2017-07-11T17:42:14.159Z,44
2017-07-11T17:43:23.764Z,44
2017-07-11T17:44:32.412Z,36
2017-07-11T17:45:41.051Z,36
2017-07-11T17:46:50.008Z,40
2017-07-11T17:47:59.278Z,40
2017-07-11T17:49:08.248Z,40
2017-07-11T17:50:17.201Z,48
2017-07-11T17:51:26.473Z,52
2017-07-11T17:52:35.125Z,52
2017-07-11T17:53:44.408Z,56
2017-07-11T17:54:53.683Z,64
2017-07-11T17:56:02.956Z,76
2017-07-11T17:57:11.618Z,84
2017-07-11T17:58:20.267Z,88
2017-07-11T17:59:29.552Z,92
2017-07-11T18:00:38.823Z,96
2017-07-11T18:01:47.475Z,100
2017-07-11T18:02:56.445Z,104
2017-07-11T18:04:05.729Z,108
2017-07-11T18:05:14.684Z,108
2017-07-11T18:06:23.649Z,108
2017-07-11T18:07:32.286Z,92
2017-07-11T18:08:41.567Z,80
2017-07-11T18:09:50.222Z,68
2017-07-11T18:10:59.812Z,56
2017-07-11T18:12:08.464Z,60
2017-07-11T18:13:17.422Z,76
2017-07-11T18:14:26.384Z,108
2017-07-11T18:15:35.359Z,128
2017-07-11T18:16:44.653Z,140
2017-07-11T18:17:54.261Z,148
2017-07-11T18:19:03.845Z,164
2017-07-11T18:20:12.506Z,168
2017-07-11T18:21:21.468Z,172
2017-07-11T18:22:30.748Z,196
2017-07-11T18:23:39.387Z,200
2017-07-11T18:24:48.374Z,172
2017-07-11T18:25:57.012Z,132
2017-07-11T18:27:06.320Z,100
2017-07-11T18:28:15.594Z,80
2017-07-11T18:29:24.554Z,64
2017-07-11T18:30:33.857Z,60
2017-07-11T18:31:43.780Z,48
2017-07-11T18:32:53.071Z,48
2017-07-11T18:34:02.039Z,40
2017-07-11T18:35:11.636Z,40
2017-07-11T18:36:20.927Z,48
2017-07-11T18:37:29.893Z,56
2017-07-11T18:38:38.541Z,72
2017-07-11T18:39:48.127Z,80
2017-07-11T18:40:56.850Z,84
2017-07-11T18:42:05.488Z,80
2017-07-11T18:43:14.468Z,88
2017-07-11T18:44:23.752Z,104
2017-07-11T18:45:33.038Z,132
2017-07-11T18:46:42.330Z,136
2017-07-11T18:47:51.612Z,128
2017-07-11T18:49:00.606Z,124
2017-07-11T18:50:09.281Z,108
2017-07-11T18:51:18.590Z,88
2017-07-11T18:52:27.558Z,80
2017-07-11T18:53:36.844Z,80
2017-07-11T18:54:46.756Z,84
2017-07-11T18:55:55.718Z,84
2017-07-11T18:57:04.393Z,84
2017-07-11T18:58:13.465Z,88
2017-07-11T18:59:23.070Z,88
2017-07-11T19:00:32.044Z,92
2017-07-11T19:01:41.326Z,92
2017-07-11T19:02:50.617Z,100
2017-07-11T19:03:59.268Z,100
2017-07-11T19:05:08.569Z,96
2017-07-11T19:06:17.535Z,92
2017-07-11T19:07:26.505Z,88
2017-07-11T19:08:35.155Z,88
2017-07-11T19:09:44.140Z,92